Jack Robertson — WDE5993 — position and weather

sailwx.info

Track history (hours):
 
Tides and Currents Weather Stations Pressure Air Temp Water Temp Dewpoint Dewpoint Depression Visibility Wind Speed Wind Dir Waves Ship Positions

Oceanographic research ship Jack Robertson (United States)

Owner: University of Washington Applied Physics Laboratory, Seattle, WA. More information available from US FCC via Universal Licensing System and Coast Guard Vessel Documentation Center.

Last reported at 2017-Apr-21 21:17 UTC. Time now 2017-Apr-23 15:45 UTC.
Position N 47°39' W 122°19'.

; draft 1.7 m.

Type: Other ship. MMSI: 367374350.

Date/timePositionNaut miles runAvg speedWind from/ knotsBaromVisibWave heightAir tempDewpointWater temp
2017-Apr-21 21:17N 47°39' W 122°19'1 4.7
2017-Apr-21 21:00N 47°39' W 122°21'2 4.2
2017-Apr-21 20:30N 47°40' W 122°24'0 0.4
2017-Apr-21 20:00N 47°40' W 122°24'1 1.8
2017-Apr-21 19:30N 47°41' W 122°24'2 4.3
2017-Apr-21 19:01N 47°43' W 122°25'2 4.3
2017-Apr-21 18:30N 47°41' W 122°24'0 0.0
2017-Apr-21 18:00N 47°41' W 122°24'0 0.0
2017-Apr-21 17:30N 47°41' W 122°24'0 0.0
2017-Apr-21 17:00N 47°41' W 122°24'0 0.0
2017-Apr-21 16:30N 47°41' W 122°24'0 0.0
2017-Apr-21 16:00N 47°41' W 122°24'0 0.0
2017-Apr-21 15:31N 47°41' W 122°24'3 5.3
2017-Apr-21 15:00N 47°43' W 122°24'2 4.6
2017-Apr-21 14:30N 47°41' W 122°24'0 0.0
2017-Apr-20 20:23N 47°41' W 122°24'0 0.0
2017-Apr-20 20:00N 47°41' W 122°24'0 0.0
2017-Apr-20 19:30N 47°41' W 122°24'2 4.7
2017-Apr-20 19:00N 47°43' W 122°25'2 4.7
2017-Apr-20 18:30N 47°41' W 122°24'0 0.0
2017-Apr-20 18:00N 47°41' W 122°24'0 0.0
2017-Apr-20 17:30N 47°41' W 122°24'0 0.0
2017-Apr-20 17:00N 47°41' W 122°24'0 0.0
2017-Apr-20 16:30N 47°41' W 122°24'0 0.0
2017-Apr-20 16:00N 47°41' W 122°24'0 0.0
2017-Apr-20 15:30N 47°41' W 122°24'1 1.1
2017-Apr-20 15:00N 47°41' W 122°24'2 3.8
2017-Apr-20 14:30N 47°43' W 122°24'2 0.1
2017-Apr-19 20:09N 47°41' W 122°24'0 0.0
2017-Apr-19 20:00N 47°41' W 122°24'2 3.5
2017-Apr-19 19:30N 47°43' W 122°25'2 3.2
2017-Apr-19 19:00N 47°41' W 122°24'0 0.2
2017-Apr-19 18:30N 47°41' W 122°24'0 0.0
2017-Apr-19 18:00N 47°41' W 122°24'0 0.0
2017-Apr-19 17:30N 47°41' W 122°24'0 0.0
2017-Apr-19 17:00N 47°41' W 122°24'0 0.0
2017-Apr-19 16:30N 47°41' W 122°24'0 0.7
2017-Apr-19 16:00N 47°41' W 122°24'1 2.3
2017-Apr-19 15:30N 47°42' W 122°24'1 1.5
2017-Apr-19 15:00N 47°43' W 122°24'2 4.5
2017-Apr-19 14:30N 47°41' W 122°24'0 0.0
2017-Apr-18 21:31N 47°41' W 122°24'0 0.0
2017-Apr-18 21:30N 47°41' W 122°24'0 0.0
2017-Apr-18 21:00N 47°41' W 122°24'0 0.0
2017-Apr-18 20:30N 47°41' W 122°24'0 0.3
2017-Apr-18 20:00N 47°41' W 122°24'2 4.2
2017-Apr-18 19:30N 47°43' W 122°24'0 0.4
2017-Apr-18 19:00N 47°43' W 122°24'2 0.6
2017-Apr-18 15:36N 47°41' W 122°24'0 1.1
2017-Apr-18 15:31N 47°41' W 122°24'2 4.0
2017-Apr-18 15:00N 47°43' W 122°24'2 2.1
2017-Apr-18 14:00N 47°41' W 122°24'0 0.0
2017-Apr-18 13:31N 47°41' W 122°24'0 0.0
2017-Apr-18 13:00N 47°41' W 122°24'0 0.0
2017-Apr-18 12:31N 47°41' W 122°24'0 0.0
2017-Apr-18 12:01N 47°41' W 122°24'0 0.0
2017-Apr-18 11:31N 47°41' W 122°24'0 0.0
2017-Apr-18 11:00N 47°41' W 122°24'0 0.0
2017-Apr-18 10:31N 47°41' W 122°24'0 0.0
2017-Apr-18 10:00N 47°41' W 122°24'0 0.0
2017-Apr-18 09:31N 47°41' W 122°24'0 0.0
2017-Apr-18 09:01N 47°41' W 122°24'0 0.0
2017-Apr-18 08:31N 47°41' W 122°24'0 0.0
2017-Apr-18 08:00N 47°41' W 122°24'0 0.0
2017-Apr-18 07:31N 47°41' W 122°24'0 0.0
2017-Apr-18 07:00N 47°41' W 122°24'0 0.0
2017-Apr-18 06:31N 47°41' W 122°24'0 0.0
2017-Apr-18 06:01N 47°41' W 122°24'0 0.0
2017-Apr-18 05:30N 47°41' W 122°24'0 0.0
2017-Apr-18 05:01N 47°41' W 122°24'0 0.0
2017-Apr-18 04:31N 47°41' W 122°24'0 0.0
2017-Apr-18 04:01N 47°41' W 122°24'0 0.0
2017-Apr-18 03:31N 47°41' W 122°24'0 0.0
2017-Apr-18 03:01N 47°41' W 122°24'0 0.0
2017-Apr-18 02:30N 47°41' W 122°24'0 0.0
2017-Apr-18 02:01N 47°41' W 122°24'0 0.0
2017-Apr-18 01:30N 47°41' W 122°24'0 0.0
2017-Apr-18 01:00N 47°41' W 122°24'0 0.0
2017-Apr-18 00:31N 47°41' W 122°24'0 0.0
2017-Apr-18 00:01N 47°41' W 122°24'0 0.0
2017-Apr-17 23:31N 47°41' W 122°24'0 0.0
2017-Apr-17 23:01N 47°41' W 122°24'0 0.0
2017-Apr-17 22:31N 47°41' W 122°24'0 0.0
2017-Apr-17 22:01N 47°41' W 122°24'0 0.0
2017-Apr-17 21:31N 47°41' W 122°24'1 2.2
2017-Apr-17 21:01N 47°42' W 122°25'2 3.7
2017-Apr-17 20:30N 47°43' W 122°24'0 0.3
2017-Apr-17 20:00N 47°44' W 122°24'3 2.0
2017-Apr-17 18:37N 47°41' W 122°24'0 0.0
2017-Apr-17 17:59N 47°41' W 122°24'0 0.0
2017-Apr-17 16:39N 47°41' W 122°24'0 0.0
2017-Apr-17 16:31N 47°41' W 122°24'1 3.0
2017-Apr-17 16:01N 47°42' W 122°25'1 1.7
2017-Apr-17 15:31N 47°43' W 122°24'2 4.6
2017-Apr-17 15:01N 47°41' W 122°24'0 0.0
2017-Apr-17 14:01N 47°41' W 122°24'  
2017-Apr-14 22:23N 47°41' W 122°24'2 4.3
2017-Apr-14 22:00N 47°42' W 122°25'2 4.0
2017-Apr-14 21:30N 47°44' W 122°23'1 1.1
2017-Apr-14 21:00N 47°43' W 122°23'1 1.3
2017-Apr-14 20:30N 47°43' W 122°24'1 1.1
2017-Apr-14 20:00N 47°43' W 122°23'1 2.4
2017-Apr-14 19:31N 47°42' W 122°25'2 3.3
2017-Apr-14 19:00N 47°41' W 122°24'0 0.0
2017-Apr-14 18:31N 47°41' W 122°24'0 0.5
2017-Apr-14 18:01N 47°41' W 122°24'2 3.2
2017-Apr-14 17:30N 47°43' W 122°24'0 0.1
2017-Apr-14 17:01N 47°43' W 122°24'2 3.6
2017-Apr-14 16:31N 47°41' W 122°24'0 0.3
2017-Apr-14 16:00N 47°41' W 122°24'2 4.1
2017-Apr-14 15:31N 47°43' W 122°24'2 3.7
2017-Apr-14 15:01N 47°41' W 122°24'0 0.4
2017-Apr-14 14:00N 47°41' W 122°24'0 0.0
2017-Apr-13 21:28N 47°41' W 122°24'0 0.2
2017-Apr-13 21:00N 47°41' W 122°24'3 5.1
2017-Apr-13 20:30N 47°43' W 122°24'1 2.1
2017-Apr-13 20:00N 47°44' W 122°24'3 6.5
2017-Apr-13 19:30N 47°41' W 122°24'0 0.0
2017-Apr-13 19:00N 47°41' W 122°24'0 0.0
2017-Apr-13 18:31N 47°41' W 122°24'0 0.0
2017-Apr-13 18:01N 47°41' W 122°24'0 0.0
2017-Apr-13 17:31N 47°41' W 122°24'0 0.0
2017-Apr-13 17:01N 47°41' W 122°24'0 0.0
2017-Apr-13 16:31N 47°41' W 122°24'2 4.4
2017-Apr-13 16:00N 47°43' W 122°24'0 0.5
2017-Apr-13 15:31N 47°43' W 122°24'2 4.7
2017-Apr-13 15:01N 47°41' W 122°24'0 0.0
2017-Apr-13 14:31N 47°41' W 122°24'0 0.0
2017-Apr-12 21:45N 47°41' W 122°24'0 0.4
2017-Apr-12 21:31N 47°41' W 122°24'3 6.6
2017-Apr-12 21:00N 47°44' W 122°23'1 1.5
2017-Apr-12 20:30N 47°44' W 122°24'2 4.7
2017-Apr-12 20:00N 47°41' W 122°24'0 0.0
2017-Apr-12 19:30N 47°41' W 122°24'0 0.0
2017-Apr-12 19:00N 47°41' W 122°24'0 0.0
2017-Apr-12 18:30N 47°41' W 122°24'0 0.0
2017-Apr-12 18:00N 47°41' W 122°24'0 0.0
2017-Apr-12 17:30N 47°41' W 122°24'1 1.3
2017-Apr-12 17:00N 47°42' W 122°25'2 3.5
2017-Apr-12 16:30N 47°43' W 122°24'0 0.3
2017-Apr-12 16:00N 47°43' W 122°24'2 0.1
2017-Apr-11 22:53N 47°41' W 122°24'1 2.3
2017-Apr-11 22:30N 47°42' W 122°25'1 2.8
2017-Apr-11 22:01N 47°43' W 122°24'1 1.3
2017-Apr-11 21:30N 47°44' W 122°24'  
Track history (hours):
 
Tides and Currents Weather Stations Pressure Air Temp Water Temp Dewpoint Dewpoint Depression Visibility Wind Speed Wind Dir Waves Ship Positions

Oceanographic research ship Jack Robertson (United States)

Owner: University of Washington Applied Physics Laboratory, Seattle, WA. More information available from US FCC via Universal Licensing System and Coast Guard Vessel Documentation Center.

Last reported at 2017-Apr-21 21:17 UTC. Time now 2017-Apr-23 15:45 UTC.
Position N 47°39' W 122°19'.

; draft 1.7 m.

Type: Other ship. MMSI: 367374350.

Date/timePositionNaut miles runAvg speedWind from/ knotsBaromVisibWave heightAir tempDewpointWater temp
2017-Apr-21 21:17N 47°39' W 122°19'1 4.7
2017-Apr-21 21:00N 47°39' W 122°21'2 4.2
2017-Apr-21 20:30N 47°40' W 122°24'0 0.4
2017-Apr-21 20:00N 47°40' W 122°24'1 1.8
2017-Apr-21 19:30N 47°41' W 122°24'2 4.3
2017-Apr-21 19:01N 47°43' W 122°25'2 4.3
2017-Apr-21 18:30N 47°41' W 122°24'0 0.0
2017-Apr-21 18:00N 47°41' W 122°24'0 0.0
2017-Apr-21 17:30N 47°41' W 122°24'0 0.0
2017-Apr-21 17:00N 47°41' W 122°24'0 0.0
2017-Apr-21 16:30N 47°41' W 122°24'0 0.0
2017-Apr-21 16:00N 47°41' W 122°24'0 0.0
2017-Apr-21 15:31N 47°41' W 122°24'3 5.3
2017-Apr-21 15:00N 47°43' W 122°24'2 4.6
2017-Apr-21 14:30N 47°41' W 122°24'0 0.0
2017-Apr-20 20:23N 47°41' W 122°24'0 0.0
2017-Apr-20 20:00N 47°41' W 122°24'0 0.0
2017-Apr-20 19:30N 47°41' W 122°24'2 4.7
2017-Apr-20 19:00N 47°43' W 122°25'2 4.7
2017-Apr-20 18:30N 47°41' W 122°24'0 0.0
2017-Apr-20 18:00N 47°41' W 122°24'0 0.0
2017-Apr-20 17:30N 47°41' W 122°24'0 0.0
2017-Apr-20 17:00N 47°41' W 122°24'0 0.0
2017-Apr-20 16:30N 47°41' W 122°24'0 0.0
2017-Apr-20 16:00N 47°41' W 122°24'0 0.0
2017-Apr-20 15:30N 47°41' W 122°24'1 1.1
2017-Apr-20 15:00N 47°41' W 122°24'2 3.8
2017-Apr-20 14:30N 47°43' W 122°24'2 0.1
2017-Apr-19 20:09N 47°41' W 122°24'0 0.0
2017-Apr-19 20:00N 47°41' W 122°24'2 3.5
2017-Apr-19 19:30N 47°43' W 122°25'2 3.2
2017-Apr-19 19:00N 47°41' W 122°24'0 0.2
2017-Apr-19 18:30N 47°41' W 122°24'0 0.0
2017-Apr-19 18:00N 47°41' W 122°24'0 0.0
2017-Apr-19 17:30N 47°41' W 122°24'0 0.0
2017-Apr-19 17:00N 47°41' W 122°24'0 0.0
2017-Apr-19 16:30N 47°41' W 122°24'0 0.7
2017-Apr-19 16:00N 47°41' W 122°24'1 2.3
2017-Apr-19 15:30N 47°42' W 122°24'1 1.5
2017-Apr-19 15:00N 47°43' W 122°24'2 4.5
2017-Apr-19 14:30N 47°41' W 122°24'0 0.0
2017-Apr-18 21:31N 47°41' W 122°24'0 0.0
2017-Apr-18 21:30N 47°41' W 122°24'0 0.0
2017-Apr-18 21:00N 47°41' W 122°24'0 0.0
2017-Apr-18 20:30N 47°41' W 122°24'0 0.3
2017-Apr-18 20:00N 47°41' W 122°24'2 4.2
2017-Apr-18 19:30N 47°43' W 122°24'0 0.4
2017-Apr-18 19:00N 47°43' W 122°24'2 0.6
2017-Apr-18 15:36N 47°41' W 122°24'0 1.1
2017-Apr-18 15:31N 47°41' W 122°24'2 4.0
2017-Apr-18 15:00N 47°43' W 122°24'2 2.1
2017-Apr-18 14:00N 47°41' W 122°24'0 0.0
2017-Apr-18 13:31N 47°41' W 122°24'0 0.0
2017-Apr-18 13:00N 47°41' W 122°24'0 0.0
2017-Apr-18 12:31N 47°41' W 122°24'0 0.0
2017-Apr-18 12:01N 47°41' W 122°24'0 0.0
2017-Apr-18 11:31N 47°41' W 122°24'0 0.0
2017-Apr-18 11:00N 47°41' W 122°24'0 0.0
2017-Apr-18 10:31N 47°41' W 122°24'0 0.0
2017-Apr-18 10:00N 47°41' W 122°24'0 0.0
2017-Apr-18 09:31N 47°41' W 122°24'0 0.0
2017-Apr-18 09:01N 47°41' W 122°24'0 0.0
2017-Apr-18 08:31N 47°41' W 122°24'0 0.0
2017-Apr-18 08:00N 47°41' W 122°24'0 0.0
2017-Apr-18 07:31N 47°41' W 122°24'0 0.0
2017-Apr-18 07:00N 47°41' W 122°24'0 0.0
2017-Apr-18 06:31N 47°41' W 122°24'0 0.0
2017-Apr-18 06:01N 47°41' W 122°24'0 0.0
2017-Apr-18 05:30N 47°41' W 122°24'0 0.0
2017-Apr-18 05:01N 47°41' W 122°24'0 0.0
2017-Apr-18 04:31N 47°41' W 122°24'0 0.0
2017-Apr-18 04:01N 47°41' W 122°24'0 0.0
2017-Apr-18 03:31N 47°41' W 122°24'0 0.0
2017-Apr-18 03:01N 47°41' W 122°24'0 0.0
2017-Apr-18 02:30N 47°41' W 122°24'0 0.0
2017-Apr-18 02:01N 47°41' W 122°24'0 0.0
2017-Apr-18 01:30N 47°41' W 122°24'0 0.0
2017-Apr-18 01:00N 47°41' W 122°24'0 0.0
2017-Apr-18 00:31N 47°41' W 122°24'0 0.0
2017-Apr-18 00:01N 47°41' W 122°24'0 0.0
2017-Apr-17 23:31N 47°41' W 122°24'0 0.0
2017-Apr-17 23:01N 47°41' W 122°24'0 0.0
2017-Apr-17 22:31N 47°41' W 122°24'0 0.0
2017-Apr-17 22:01N 47°41' W 122°24'0 0.0
2017-Apr-17 21:31N 47°41' W 122°24'1 2.2
2017-Apr-17 21:01N 47°42' W 122°25'2 3.7
2017-Apr-17 20:30N 47°43' W 122°24'0 0.3
2017-Apr-17 20:00N 47°44' W 122°24'3 2.0
2017-Apr-17 18:37N 47°41' W 122°24'0 0.0
2017-Apr-17 17:59N 47°41' W 122°24'0 0.0
2017-Apr-17 16:39N 47°41' W 122°24'0 0.0
2017-Apr-17 16:31N 47°41' W 122°24'1 3.0
2017-Apr-17 16:01N 47°42' W 122°25'1 1.7
2017-Apr-17 15:31N 47°43' W 122°24'2 4.6
2017-Apr-17 15:01N 47°41' W 122°24'0 0.0
2017-Apr-17 14:01N 47°41' W 122°24'  
2017-Apr-14 22:23N 47°41' W 122°24'2 4.3
2017-Apr-14 22:00N 47°42' W 122°25'2 4.0
2017-Apr-14 21:30N 47°44' W 122°23'1 1.1
2017-Apr-14 21:00N 47°43' W 122°23'1 1.3
2017-Apr-14 20:30N 47°43' W 122°24'1 1.1
2017-Apr-14 20:00N 47°43' W 122°23'1 2.4
2017-Apr-14 19:31N 47°42' W 122°25'2 3.3
2017-Apr-14 19:00N 47°41' W 122°24'0 0.0
2017-Apr-14 18:31N 47°41' W 122°24'0 0.5
2017-Apr-14 18:01N 47°41' W 122°24'2 3.2
2017-Apr-14 17:30N 47°43' W 122°24'0 0.1
2017-Apr-14 17:01N 47°43' W 122°24'2 3.6
2017-Apr-14 16:31N 47°41' W 122°24'0 0.3
2017-Apr-14 16:00N 47°41' W 122°24'2 4.1
2017-Apr-14 15:31N 47°43' W 122°24'2 3.7
2017-Apr-14 15:01N 47°41' W 122°24'0 0.4
2017-Apr-14 14:00N 47°41' W 122°24'0 0.0
2017-Apr-13 21:28N 47°41' W 122°24'0 0.2
2017-Apr-13 21:00N 47°41' W 122°24'3 5.1
2017-Apr-13 20:30N 47°43' W 122°24'1 2.1
2017-Apr-13 20:00N 47°44' W 122°24'3 6.5
2017-Apr-13 19:30N 47°41' W 122°24'0 0.0
2017-Apr-13 19:00N 47°41' W 122°24'0 0.0
2017-Apr-13 18:31N 47°41' W 122°24'0 0.0
2017-Apr-13 18:01N 47°41' W 122°24'0 0.0
2017-Apr-13 17:31N 47°41' W 122°24'0 0.0
2017-Apr-13 17:01N 47°41' W 122°24'0 0.0
2017-Apr-13 16:31N 47°41' W 122°24'2 4.4
2017-Apr-13 16:00N 47°43' W 122°24'0 0.5
2017-Apr-13 15:31N 47°43' W 122°24'2 4.7
2017-Apr-13 15:01N 47°41' W 122°24'0 0.0
2017-Apr-13 14:31N 47°41' W 122°24'0 0.0
2017-Apr-12 21:45N 47°41' W 122°24'0 0.4
2017-Apr-12 21:31N 47°41' W 122°24'3 6.6
2017-Apr-12 21:00N 47°44' W 122°23'1 1.5
2017-Apr-12 20:30N 47°44' W 122°24'2 4.7
2017-Apr-12 20:00N 47°41' W 122°24'0 0.0
2017-Apr-12 19:30N 47°41' W 122°24'0 0.0
2017-Apr-12 19:00N 47°41' W 122°24'0 0.0
2017-Apr-12 18:30N 47°41' W 122°24'0 0.0
2017-Apr-12 18:00N 47°41' W 122°24'0 0.0
2017-Apr-12 17:30N 47°41' W 122°24'1 1.3
2017-Apr-12 17:00N 47°42' W 122°25'2 3.5
2017-Apr-12 16:30N 47°43' W 122°24'0 0.3
2017-Apr-12 16:00N 47°43' W 122°24'2 0.1
2017-Apr-11 22:53N 47°41' W 122°24'1 2.3
2017-Apr-11 22:30N 47°42' W 122°25'1 2.8
2017-Apr-11 22:01N 47°43' W 122°24'1 1.3
2017-Apr-11 21:30N 47°44' W 122°24'  

Dump ship's entire track history